Time;durP1;ratioP1;P1;durP2;ratioP2;P2;SDS_P1;SDS_P2;PMS_P1;PMS_P2;Temp;Humidity;BMP_temperature;BMP_pressure;BME280_temperature;BME280_humidity;BME280_pressure;Samples;Min_cycle;Max_cycle;Signal;HPM_P1;HPM_P2
2021/12/13 00:01:55;;;;;;;20.85;10.95;;;7.70;99.90;;;;;;5028667;28;20424;-55
2021/12/13 00:04:27;;;;;;;13.88;9.85;;;7.70;99.90;;;;;;5028456;28;20021;-52
2021/12/13 00:07:03;;;;;;;16.92;9.23;;;7.70;99.90;;;;;;5028006;28;20026;-56
2021/12/13 00:09:34;;;;;;;16.58;9.30;;;7.70;99.90;;;;;;5028272;28;20111;-54
2021/12/13 00:12:02;;;;;;;23.40;12.55;;;7.70;99.90;;;;;;5027073;28;20411;-54
2021/12/13 00:14:33;;;;;;;53.00;14.73;;;7.70;99.90;;;;;;5028171;28;20033;-55
2021/12/13 00:17:11;;;;;;;33.70;12.95;;;7.60;99.90;;;;;;5027754;28;20055;-53
2021/12/13 00:19:40;;;;;;;30.30;14.40;;;7.70;99.90;;;;;;5028254;28;20467;-54
2021/12/13 00:22:15;;;;;;;26.88;14.30;;;7.70;99.90;;;;;;5027762;28;20048;-53
2021/12/13 00:24:45;;;;;;;24.45;13.05;;;7.70;99.90;;;;;;5026903;28;20119;-55
2021/12/13 00:27:14;;;;;;;43.47;13.10;;;7.70;99.90;;;;;;5026234;28;20021;-54
2021/12/13 00:29:59;;;;;;;20.98;10.40;;;7.70;99.90;;;;;;5024164;28;20523;-55
2021/12/13 00:33:02;;;;;;;43.20;12.95;;;7.70;99.90;;;;;;5027034;28;20033;-55
2021/12/13 00:35:40;;;;;;;21.75;12.05;;;7.70;99.90;;;;;;5027467;28;20025;-53
2021/12/13 00:38:08;;;;;;;28.33;13.13;;;7.70;99.90;;;;;;5027598;28;20030;-53
2021/12/13 00:40:42;;;;;;;22.83;11.18;;;7.70;99.90;;;;;;5027971;28;20014;-51
2021/12/13 00:43:21;;;;;;;75.07;17.33;;;7.70;99.90;;;;;;5028751;28;20120;-52
2021/12/13 00:45:53;;;;;;;45.92;14.43;;;7.70;99.90;;;;;;5028103;28;20021;-51
2021/12/13 00:48:20;;;;;;;24.17;13.02;;;7.70;99.90;;;;;;5026026;28;20037;-55
2021/12/13 00:51:03;;;;;;;38.13;13.60;;;7.70;99.90;;;;;;5027685;28;20048;-53
2021/12/13 00:53:34;;;;;;;115.22;16.92;;;7.70;99.90;;;;;;5027128;28;20068;-52
2021/12/13 00:56:00;;;;;;;25.70;12.77;;;7.70;99.90;;;;;;5026182;28;20021;-51
2021/12/13 00:58:26;;;;;;;55.30;15.48;;;7.80;99.90;;;;;;5027011;28;20067;-55
2021/12/13 01:01:01;;;;;;;34.42;14.35;;;7.70;99.90;;;;;;5026570;28;20048;-54
2021/12/13 01:03:40;;;;;;;39.05;13.52;;;7.80;99.90;;;;;;5027659;28;20392;-52
2021/12/13 01:06:28;;;;;;;36.22;13.38;;;7.80;99.90;;;;;;5027743;28;20191;-52
2021/12/13 01:09:31;;;;;;;23.67;13.15;;;7.80;99.90;;;;;;5027708;28;20110;-55
2021/12/13 01:12:00;;;;;;;23.10;12.57;;;7.80;99.90;;;;;;5025747;28;20032;-54
2021/12/13 01:14:42;;;;;;;25.27;13.13;;;7.80;99.90;;;;;;5026990;28;20324;-54
2021/12/13 01:17:36;;;;;;;41.60;14.32;;;7.80;99.90;;;;;;5026783;28;20045;-54
2021/12/13 01:20:33;;;;;;;23.25;12.02;;;7.80;99.90;;;;;;5027855;28;20498;-51
2021/12/13 01:23:15;;;;;;;22.67;10.55;;;7.80;99.90;;;;;;5028123;28;20032;-53
2021/12/13 01:26:00;;;;;;;29.33;11.32;;;7.80;99.90;;;;;;5026051;28;20034;-55
2021/12/13 01:28:29;;;;;;;20.65;10.27;;;7.80;99.90;;;;;;5025896;28;20454;-55
2021/12/13 01:31:04;;;;;;;21.70;10.65;;;7.80;99.90;;;;;;5027298;28;20022;-56
2021/12/13 01:33:31;;;;;;;20.00;9.95;;;7.80;99.90;;;;;;5027497;28;20355;-53
2021/12/13 01:36:01;;;;;;;23.00;10.77;;;7.80;99.90;;;;;;5025862;28;20037;-54
2021/12/13 01:38:34;;;;;;;27.55;10.68;;;7.80;99.90;;;;;;5026777;28;20392;-56
2021/12/13 01:41:08;;;;;;;19.63;9.63;;;7.90;99.90;;;;;;5023089;28;20060;-52
2021/12/13 01:43:38;;;;;;;29.13;11.63;;;7.90;99.90;;;;;;5026650;28;20069;-52
2021/12/13 01:46:04;;;;;;;20.35;10.45;;;7.90;99.90;;;;;;5027009;28;20033;-53
2021/12/13 01:48:36;;;;;;;21.33;10.77;;;7.90;99.90;;;;;;5025555;28;20115;-52
2021/12/13 01:51:08;;;;;;;24.67;10.60;;;7.90;99.90;;;;;;5029550;28;20062;-53
2021/12/13 01:53:46;;;;;;;17.25;9.38;;;7.90;99.90;;;;;;5029994;28;20029;-54
2021/12/13 01:56:40;;;;;;;20.80;10.57;;;7.90;99.90;;;;;;5030180;28;20025;-53
2021/12/13 01:59:28;;;;;;;15.77;9.60;;;7.90;99.90;;;;;;5026281;28;20025;-55
2021/12/13 02:01:58;;;;;;;26.92;9.27;;;7.90;99.90;;;;;;5028014;28;20022;-54
2021/12/13 02:04:24;;;;;;;19.10;8.20;;;7.90;99.90;;;;;;5026552;28;20026;-53
2021/12/13 02:06:54;;;;;;;18.20;8.52;;;7.90;99.90;;;;;;5030095;28;20034;-54
2021/12/13 02:09:27;;;;;;;21.90;8.63;;;7.90;99.90;;;;;;5029225;28;20033;-55
2021/12/13 02:11:56;;;;;;;16.60;7.72;;;7.90;99.90;;;;;;5027741;28;20022;-52
2021/12/13 02:14:28;;;;;;;11.77;6.70;;;7.90;99.90;;;;;;5030565;28;20499;-52
2021/12/13 02:19:38;;;;;;;15.95;8.02;;;8.00;99.90;;;;;;5029889;28;20033;-53
2021/12/13 02:22:24;;;;;;;16.25;7.90;;;8.00;99.90;;;;;;5029828;28;20549;-52
2021/12/13 02:24:53;;;;;;;18.35;8.40;;;8.00;99.90;;;;;;5030439;28;20463;-52
2021/12/13 02:27:24;;;;;;;15.25;7.45;;;8.00;99.90;;;;;;5029093;28;20045;-52
2021/12/13 02:29:53;;;;;;;17.48;8.15;;;8.00;99.90;;;;;;5029852;28;20586;-53
2021/12/13 02:32:20;;;;;;;21.48;8.43;;;8.00;99.90;;;;;;5029453;28;20033;-52
2021/12/13 02:34:46;;;;;;;13.13;7.30;;;8.00;99.90;;;;;;5028561;28;20025;-56
2021/12/13 02:37:13;;;;;;;18.98;7.07;;;8.00;99.90;;;;;;5030222;28;20037;-54
2021/12/13 02:39:48;;;;;;;19.60;7.72;;;8.10;99.90;;;;;;5029557;28;20036;-54
2021/12/13 02:42:17;;;;;;;16.15;7.65;;;8.10;99.90;;;;;;5028946;28;20041;-52
2021/12/13 02:44:54;;;;;;;22.23;7.72;;;8.10;99.90;;;;;;5030176;28;20032;-54
2021/12/13 02:47:36;;;;;;;13.68;6.60;;;8.10;99.90;;;;;;5029496;28;20075;-56
2021/12/13 02:50:04;;;;;;;15.63;6.45;;;8.20;99.90;;;;;;5028861;28;20025;-53
2021/12/13 02:52:30;;;;;;;11.57;6.05;;;8.10;99.90;;;;;;5028740;28;20552;-53
2021/12/13 02:55:05;;;;;;;15.82;6.55;;;8.20;99.90;;;;;;5029891;28;20013;-52
2021/12/13 02:57:36;;;;;;;12.00;6.38;;;8.10;99.90;;;;;;5028985;28;20132;-55
2021/12/13 03:00:19;;;;;;;16.50;5.90;;;8.10;99.90;;;;;;5028378;28;20073;-56
2021/12/13 03:02:47;;;;;;;15.95;6.30;;;8.10;99.90;;;;;;5028798;28;20036;-54
2021/12/13 03:05:18;;;;;;;12.25;5.20;;;8.20;99.90;;;;;;5028793;28;20036;-52
2021/12/13 03:07:48;;;;;;;16.35;6.07;;;8.20;99.90;;;;;;5028947;28;20024;-52
2021/12/13 03:10:20;;;;;;;11.05;5.57;;;8.20;99.90;;;;;;5028392;28;20276;-53
2021/12/13 03:12:45;;;;;;;10.20;6.05;;;8.20;99.90;;;;;;5029184;28;20038;-53
2021/12/13 03:15:18;;;;;;;14.80;6.00;;;8.20;99.90;;;;;;5028619;28;20025;-56
2021/12/13 03:20:17;;;;;;;16.25;6.50;;;8.20;99.90;;;;;;5048366;22;20061;-48
2021/12/13 03:23:15;;;;;;;12.38;5.40;;;8.20;99.90;;;;;;5028634;28;20107;-53
2021/12/13 03:25:47;;;;;;;13.07;5.65;;;8.30;99.90;;;;;;5029773;28;20076;-50
2021/12/13 03:28:20;;;;;;;13.48;5.90;;;8.30;99.90;;;;;;5028389;28;20079;-50
2021/12/13 03:31:04;;;;;;;12.32;5.65;;;8.30;99.90;;;;;;5028422;28;20029;-47
2021/12/13 03:33:41;;;;;;;10.18;5.47;;;8.40;99.90;;;;;;5028700;28;20116;-47
2021/12/13 03:36:12;;;;;;;9.23;4.55;;;8.40;99.90;;;;;;5028914;28;20026;-50
2021/12/13 03:38:42;;;;;;;9.73;4.43;;;8.40;99.90;;;;;;5028210;28;20109;-47
2021/12/13 03:41:12;;;;;;;8.82;4.72;;;8.40;99.90;;;;;;5028652;28;20037;-48
2021/12/13 03:43:45;;;;;;;10.50;5.03;;;8.50;99.90;;;;;;5028834;28;20037;-49
2021/12/13 03:46:15;;;;;;;16.67;5.30;;;8.50;99.90;;;;;;5028288;28;20064;-49
2021/12/13 03:48:43;;;;;;;9.27;4.40;;;8.50;99.90;;;;;;5027204;28;20030;-49
2021/12/13 03:51:14;;;;;;;12.60;6.05;;;8.50;99.90;;;;;;5028660;28;20129;-47
2021/12/13 03:53:44;;;;;;;11.25;5.05;;;8.50;99.90;;;;;;5028031;28;20064;-49
2021/12/13 03:56:14;;;;;;;14.90;6.43;;;8.50;99.90;;;;;;5027419;28;20569;-51
2021/12/13 03:58:46;;;;;;;12.63;5.70;;;8.50;99.90;;;;;;5027242;28;20033;-52
2021/12/13 04:01:19;;;;;;;13.32;6.88;;;8.60;99.90;;;;;;5010067;28;20384;-54
2021/12/13 04:03:46;;;;;;;17.67;7.03;;;8.60;99.90;;;;;;5027772;28;20116;-53
2021/12/13 04:06:16;;;;;;;16.02;6.90;;;8.70;99.90;;;;;;5027644;28;20029;-49
2021/12/13 04:08:44;;;;;;;23.30;7.38;;;8.70;99.90;;;;;;5026815;28;20325;-49
2021/12/13 04:11:11;;;;;;;18.52;6.93;;;8.70;99.90;;;;;;5027462;28;20475;-48
2021/12/13 04:13:47;;;;;;;17.85;7.47;;;8.70;99.90;;;;;;5010602;28;20075;-50
2021/12/13 04:16:29;;;;;;;24.48;8.82;;;8.70;99.90;;;;;;5027440;28;20391;-47
2021/12/13 04:19:08;;;;;;;18.95;8.10;;;8.80;99.90;;;;;;5027567;28;20033;-46
2021/12/13 04:21:36;;;;;;;26.90;9.10;;;8.80;99.90;;;;;;5027261;28;20096;-47
2021/12/13 04:24:05;;;;;;;20.45;8.90;;;8.80;99.90;;;;;;5010482;28;20021;-54
2021/12/13 04:26:38;;;;;;;22.90;7.97;;;8.80;99.90;;;;;;5026941;28;20038;-50
2021/12/13 04:29:04;;;;;;;32.72;9.55;;;8.80;99.90;;;;;;5025826;28;20429;-47
2021/12/13 04:31:35;;;;;;;22.60;8.43;;;8.80;99.90;;;;;;5027725;28;20036;-49
2021/12/13 04:34:03;;;;;;;26.67;9.82;;;8.80;99.90;;;;;;5027237;28;20537;-51
2021/12/13 04:36:50;;;;;;;33.63;10.45;;;8.80;99.90;;;;;;5025608;28;20036;-50
2021/12/13 04:39:31;;;;;;;28.90;9.05;;;8.80;99.90;;;;;;5027082;28;20128;-49
2021/12/13 04:42:01;;;;;;;33.67;9.57;;;8.90;99.90;;;;;;5009637;28;20036;-49
2021/12/13 04:44:52;;;;;;;35.47;10.07;;;8.90;99.90;;;;;;5026872;28;20417;-51
2021/12/13 04:47:23;;;;;;;29.40;9.30;;;8.90;99.90;;;;;;5027423;28;20064;-49
2021/12/13 04:50:12;;;;;;;23.70;9.75;;;8.80;99.90;;;;;;5027418;28;20550;-54
2021/12/13 04:52:38;;;;;;;22.75;8.85;;;8.90;99.90;;;;;;5015079;28;20033;-50
2021/12/13 04:55:18;;;;;;;31.17;10.82;;;8.90;99.90;;;;;;5028140;28;20033;-49
2021/12/13 04:57:47;;;;;;;39.28;10.80;;;8.90;99.90;;;;;;5026113;28;20033;-49
2021/12/13 05:00:17;;;;;;;36.40;10.82;;;9.00;99.90;;;;;;5027475;28;20498;-50
2021/12/13 05:02:46;;;;;;;29.77;9.35;;;9.00;99.90;;;;;;5026086;28;20115;-49
2021/12/13 05:05:13;;;;;;;28.58;10.07;;;9.00;99.90;;;;;;5027558;28;20071;-52
2021/12/13 05:07:41;;;;;;;26.45;10.48;;;9.00;99.90;;;;;;5008694;28;20036;-47
2021/12/13 05:10:08;;;;;;;26.05;9.88;;;9.00;99.90;;;;;;5026062;28;20037;-47
2021/12/13 05:12:34;;;;;;;30.67;9.88;;;9.00;99.90;;;;;;5026618;28;20040;-52
2021/12/13 05:15:04;;;;;;;24.15;9.00;;;9.00;99.90;;;;;;5027054;28;20424;-47
2021/12/13 05:17:37;;;;;;;24.63;8.70;;;9.00;99.90;;;;;;5025840;28;20083;-53
2021/12/13 05:20:20;;;;;;;22.17;8.32;;;9.00;99.90;;;;;;5026182;28;20669;-50
2021/12/13 05:22:57;;;;;;;22.05;8.60;;;9.00;99.90;;;;;;5025736;28;20018;-53
2021/12/13 05:25:40;;;;;;;23.92;7.95;;;9.00;99.90;;;;;;5025979;28;20056;-53
2021/12/13 05:28:05;;;;;;;20.27;8.77;;;9.00;99.90;;;;;;5025981;28;20052;-49
2021/12/13 05:30:33;;;;;;;22.08;8.25;;;9.00;99.90;;;;;;5026751;28;20519;-47
2021/12/13 05:33:06;;;;;;;25.40;9.32;;;9.10;99.90;;;;;;5027066;28;20480;-47
2021/12/13 05:35:43;;;;;;;19.17;8.13;;;9.10;99.90;;;;;;5027130;28;20569;-47
2021/12/13 05:38:21;;;;;;;30.98;9.48;;;9.10;99.90;;;;;;5026346;28;20458;-47
2021/12/13 05:40:47;;;;;;;27.60;9.10;;;9.10;99.90;;;;;;5026784;28;20052;-51
2021/12/13 05:43:18;;;;;;;33.08;10.10;;;9.10;99.90;;;;;;5026404;28;20056;-48
2021/12/13 05:45:48;;;;;;;24.90;9.13;;;9.10;99.90;;;;;;5026825;28;20075;-53
2021/12/13 05:48:19;;;;;;;19.75;9.02;;;9.10;99.90;;;;;;5025751;28;20025;-48
2021/12/13 05:50:58;;;;;;;27.67;8.98;;;9.10;99.90;;;;;;5027189;28;20336;-54
2021/12/13 05:53:42;;;;;;;26.25;8.35;;;9.10;99.90;;;;;;5025936;28;20048;-52
2021/12/13 05:56:13;;;;;;;22.15;9.13;;;9.10;99.90;;;;;;5025186;28;20112;-51
2021/12/13 05:58:42;;;;;;;26.80;9.32;;;9.10;99.90;;;;;;4992029;28;20053;-54
2021/12/13 06:01:22;;;;;;;34.80;10.63;;;9.10;99.90;;;;;;5025911;28;20026;-50
2021/12/13 06:04:06;;;;;;;26.67;10.25;;;9.10;99.90;;;;;;5008089;28;20022;-51
2021/12/13 06:06:53;;;;;;;30.48;10.15;;;9.10;99.90;;;;;;5026351;28;20109;-51
2021/12/13 06:09:42;;;;;;;29.73;9.60;;;9.10;99.90;;;;;;5026270;28;20050;-53
2021/12/13 06:12:23;;;;;;;25.42;9.75;;;9.10;99.90;;;;;;5026670;28;20041;-51
2021/12/13 06:14:48;;;;;;;21.92;9.55;;;9.10;99.90;;;;;;5026533;28;20033;-50
2021/12/13 06:17:30;;;;;;;34.30;9.43;;;9.10;99.90;;;;;;5025906;28;20041;-50
2021/12/13 06:20:14;;;;;;;24.60;9.90;;;9.10;99.90;;;;;;5027080;28;20033;-55
2021/12/13 06:22:39;;;;;;;23.15;8.07;;;9.10;99.90;;;;;;5026759;28;20067;-49
2021/12/13 06:25:08;;;;;;;32.03;9.43;;;9.10;99.90;;;;;;5027512;28;20025;-50
2021/12/13 06:27:42;;;;;;;23.85;9.07;;;9.10;99.90;;;;;;5025756;28;20464;-54
2021/12/13 06:30:16;;;;;;;31.48;9.18;;;9.10;99.90;;;;;;5026816;28;20254;-49
2021/12/13 06:33:04;;;;;;;25.40;9.77;;;9.10;99.90;;;;;;5026645;28;20017;-50
2021/12/13 06:35:35;;;;;;;28.50;10.27;;;9.10;99.90;;;;;;5028844;28;20029;-52
2021/12/13 06:38:26;;;;;;;38.25;9.32;;;9.10;99.90;;;;;;5012222;28;20033;-49
2021/12/13 06:41:10;;;;;;;30.42;9.40;;;9.20;99.90;;;;;;5029449;28;20117;-51
2021/12/13 06:43:38;;;;;;;27.05;10.32;;;9.10;99.90;;;;;;5028916;28;20084;-48
2021/12/13 06:46:28;;;;;;;29.83;11.00;;;9.20;99.90;;;;;;5029289;28;20064;-47
2021/12/13 06:49:07;;;;;;;26.42;9.63;;;9.20;99.90;;;;;;5029088;28;20065;-49
2021/12/13 06:51:56;;;;;;;30.02;10.00;;;9.20;99.90;;;;;;5029484;28;20400;-53
2021/12/13 06:54:24;;;;;;;25.90;10.25;;;9.20;99.90;;;;;;4991854;28;20076;-49
2021/12/13 06:57:22;;;;;;;26.23;10.82;;;9.20;99.90;;;;;;5029174;28;20034;-51
2021/12/13 06:59:54;;;;;;;47.45;10.45;;;9.20;99.90;;;;;;5029913;28;20029;-50
2021/12/13 07:02:42;;;;;;;23.88;9.38;;;9.20;99.90;;;;;;5028414;28;20513;-51
2021/12/13 07:05:14;;;;;;;17.40;8.15;;;9.20;99.90;;;;;;5025965;28;20408;-50
2021/12/13 07:07:57;;;;;;;25.77;9.43;;;9.20;99.90;;;;;;5028618;28;20427;-50
2021/12/13 07:10:38;;;;;;;26.67;8.27;;;9.20;99.90;;;;;;5030426;28;20021;-49
2021/12/13 07:13:09;;;;;;;24.65;8.38;;;9.20;99.90;;;;;;5029591;28;20061;-52
2021/12/13 07:15:37;;;;;;;13.98;5.93;;;9.20;99.90;;;;;;5029873;28;20706;-53
2021/12/13 07:18:06;;;;;;;12.93;6.97;;;9.20;99.90;;;;;;5029127;28;20021;-51
2021/12/13 07:20:43;;;;;;;12.13;6.13;;;9.20;99.90;;;;;;5029755;28;20104;-52
2021/12/13 07:23:09;;;;;;;12.35;6.20;;;9.20;99.90;;;;;;5029460;28;20022;-48
2021/12/13 07:25:38;;;;;;;15.10;7.07;;;9.20;99.90;;;;;;5029812;28;20021;-47
2021/12/13 07:28:06;;;;;;;14.35;6.50;;;9.20;99.90;;;;;;5009688;28;20377;-53
2021/12/13 07:30:33;;;;;;;12.65;6.70;;;9.20;99.90;;;;;;5028006;28;20030;-52
2021/12/13 07:33:17;;;;;;;15.18;6.70;;;9.20;99.90;;;;;;5029432;28;20029;-49
2021/12/13 07:35:47;;;;;;;9.55;5.53;;;9.30;99.90;;;;;;5029593;28;20053;-48
2021/12/13 07:38:26;;;;;;;11.50;5.78;;;9.20;99.90;;;;;;5027689;28;20014;-47
2021/12/13 07:40:56;;;;;;;11.05;6.03;;;9.20;99.90;;;;;;5030035;28;20049;-48
2021/12/13 07:43:27;;;;;;;12.70;5.80;;;9.20;99.90;;;;;;5010272;28;20933;-47
2021/12/13 07:45:55;;;;;;;13.40;5.93;;;9.20;99.90;;;;;;5027744;28;20036;-53
2021/12/13 07:48:26;;;;;;;12.57;5.97;;;9.20;99.90;;;;;;5028060;28;20072;-49
2021/12/13 07:51:10;;;;;;;9.88;5.15;;;9.30;99.90;;;;;;5011576;28;20478;-46
2021/12/13 07:53:39;;;;;;;11.68;5.97;;;9.30;99.90;;;;;;5029058;28;20442;-49
2021/12/13 07:56:06;;;;;;;11.88;6.40;;;9.30;99.90;;;;;;5029004;28;20032;-53
2021/12/13 07:58:44;;;;;;;9.10;6.47;;;9.30;99.90;;;;;;5028494;28;20032;-49
2021/12/13 08:01:15;;;;;;;12.35;6.30;;;9.30;99.90;;;;;;5028653;28;20026;-49
2021/12/13 08:03:53;;;;;;;14.15;6.88;;;9.40;99.90;;;;;;5028465;28;20048;-54
2021/12/13 08:06:19;;;;;;;10.73;5.68;;;9.40;99.90;;;;;;5027551;28;20025;-48
2021/12/13 08:08:52;;;;;;;11.38;6.22;;;9.40;99.90;;;;;;5027683;28;20036;-49
2021/12/13 08:11:18;;;;;;;15.02;6.18;;;9.40;99.90;;;;;;5029523;28;20439;-53
2021/12/13 08:13:57;;;;;;;12.73;6.57;;;9.30;99.90;;;;;;5028690;28;20025;-46
2021/12/13 08:16:34;;;;;;;14.80;7.32;;;9.40;99.90;;;;;;5010240;28;20032;-50
2021/12/13 08:19:13;;;;;;;12.52;6.57;;;9.40;99.90;;;;;;5028128;28;20399;-49
2021/12/13 08:21:44;;;;;;;13.13;6.68;;;9.40;99.90;;;;;;5027777;28;20047;-49
2021/12/13 08:24:23;;;;;;;14.50;7.13;;;9.40;99.90;;;;;;5028323;28;20026;-49
2021/12/13 08:26:55;;;;;;;11.95;6.43;;;9.40;99.90;;;;;;5011582;28;20033;-50
2021/12/13 08:29:27;;;;;;;14.13;6.95;;;9.40;99.90;;;;;;5027479;28;20282;-51
2021/12/13 08:31:54;;;;;;;14.07;6.60;;;9.40;99.90;;;;;;5026129;28;20079;-49
2021/12/13 08:34:37;;;;;;;14.02;6.65;;;9.40;99.90;;;;;;5028376;28;20377;-50
2021/12/13 08:37:24;;;;;;;17.98;7.63;;;9.40;99.90;;;;;;5026911;28;20570;-50
2021/12/13 08:39:58;;;;;;;13.93;7.72;;;9.40;99.90;;;;;;5026607;28;20017;-53
2021/12/13 08:42:28;;;;;;;16.05;8.77;;;9.40;99.90;;;;;;5027591;28;20032;-53
2021/12/13 08:45:06;;;;;;;15.60;8.13;;;9.50;99.90;;;;;;5027459;28;20076;-53
2021/12/13 08:47:47;;;;;;;13.30;8.18;;;9.50;99.90;;;;;;5027591;28;20025;-47
2021/12/13 08:50:21;;;;;;;17.10;8.30;;;9.50;99.90;;;;;;5009179;28;20025;-50
2021/12/13 08:52:53;;;;;;;16.13;10.07;;;9.50;99.90;;;;;;5027078;28;20472;-48
2021/12/13 08:55:24;;;;;;;14.07;8.77;;;9.50;99.90;;;;;;5028169;28;20024;-52
2021/12/13 08:58:07;;;;;;;15.48;8.73;;;9.50;99.90;;;;;;5026763;28;20563;-47
2021/12/13 09:00:45;;;;;;;20.00;9.52;;;9.50;99.90;;;;;;5026447;28;20022;-53
2021/12/13 09:03:22;;;;;;;16.52;9.88;;;9.50;99.90;;;;;;5027161;28;20021;-50
2021/12/13 09:05:57;;;;;;;16.20;9.40;;;9.50;99.90;;;;;;5027377;28;20037;-47
2021/12/13 09:08:38;;;;;;;17.58;9.68;;;9.50;99.90;;;;;;5027198;28;20028;-50
2021/12/13 09:11:26;;;;;;;19.35;10.57;;;9.60;99.90;;;;;;5026963;28;20108;-48
2021/12/13 09:13:58;;;;;;;19.75;11.75;;;9.60;99.90;;;;;;5026197;28;20496;-48
2021/12/13 09:17:07;;;;;;;21.35;10.55;;;9.60;99.90;;;;;;5025833;28;20112;-48
2021/12/13 09:19:56;;;;;;;19.38;9.95;;;9.60;99.90;;;;;;5013762;23;20482;-54
2021/12/13 09:22:24;;;;;;;17.33;10.55;;;9.60;99.90;;;;;;5016655;28;20481;-52
2021/12/13 09:25:02;;;;;;;19.45;11.13;;;9.60;99.90;;;;;;5016671;28;20026;-55
2021/12/13 09:27:34;;;;;;;21.02;11.15;;;9.70;99.90;;;;;;5017920;28;20029;-53
2021/12/13 09:30:11;;;;;;;20.85;11.68;;;9.70;99.90;;;;;;5016250;28;20025;-56
2021/12/13 09:32:49;;;;;;;20.83;11.63;;;9.70;99.90;;;;;;5017704;28;20029;-51
2021/12/13 09:35:24;;;;;;;22.45;12.45;;;9.70;99.90;;;;;;5016709;28;20036;-55
2021/12/13 09:37:51;;;;;;;19.70;11.73;;;9.70;99.90;;;;;;5017734;28;20041;-52
2021/12/13 09:40:19;;;;;;;17.00;11.35;;;9.70;99.90;;;;;;5018082;28;20020;-53
2021/12/13 09:42:55;;;;;;;16.05;10.63;;;9.70;99.90;;;;;;5016705;28;20117;-52
2021/12/13 09:45:38;;;;;;;19.58;10.48;;;9.80;99.90;;;;;;5016768;28;20522;-56
2021/12/13 09:48:30;;;;;;;18.02;10.85;;;9.80;99.90;;;;;;5016413;28;20661;-56
2021/12/13 09:51:02;;;;;;;22.60;11.55;;;9.80;99.90;;;;;;5017411;28;20499;-52
2021/12/13 09:53:32;;;;;;;18.88;12.30;;;9.80;99.90;;;;;;5016847;28;20179;-56
2021/12/13 09:56:01;;;;;;;22.55;12.75;;;9.80;99.90;;;;;;5017418;28;20079;-52
2021/12/13 09:58:53;;;;;;;20.05;11.73;;;9.90;99.90;;;;;;5015120;28;20044;-56
2021/12/13 10:01:27;;;;;;;22.98;12.13;;;9.80;99.90;;;;;;5017367;28;20083;-54
2021/12/13 10:03:52;;;;;;;22.73;12.90;;;9.80;99.90;;;;;;5017814;28;20036;-54
2021/12/13 10:06:30;;;;;;;24.00;11.63;;;9.90;99.90;;;;;;5017729;28;20033;-57
2021/12/13 10:09:04;;;;;;;19.88;10.90;;;9.90;99.90;;;;;;5017511;28;20479;-53
2021/12/13 10:11:38;;;;;;;21.25;11.38;;;9.90;99.90;;;;;;5021277;28;20033;-52
2021/12/13 10:14:06;;;;;;;17.27;10.70;;;9.90;99.90;;;;;;5021101;28;20128;-56
2021/12/13 10:16:35;;;;;;;19.92;10.07;;;9.90;99.90;;;;;;5021272;28;20136;-57
2021/12/13 10:19:05;;;;;;;24.55;11.23;;;10.00;99.90;;;;;;5020664;28;20025;-56
2021/12/13 10:21:39;;;;;;;18.85;10.82;;;10.00;99.90;;;;;;5021242;28;20076;-53
2021/12/13 10:24:14;;;;;;;16.73;10.45;;;10.00;99.90;;;;;;5021101;28;20365;-52
2021/12/13 10:26:42;;;;;;;20.35;10.75;;;10.00;99.90;;;;;;5020690;28;20449;-53
2021/12/13 10:29:13;;;;;;;19.52;10.77;;;10.00;99.90;;;;;;5019628;28;20108;-55
2021/12/13 10:31:42;;;;;;;16.58;9.63;;;10.00;99.90;;;;;;5020483;28;20037;-52
2021/12/13 10:34:12;;;;;;;20.08;10.32;;;10.00;99.90;;;;;;5020688;28;20029;-56
2021/12/13 10:36:41;;;;;;;21.13;9.73;;;10.00;99.90;;;;;;5020857;28;20057;-53
2021/12/13 10:39:15;;;;;;;14.27;10.43;;;10.00;99.90;;;;;;5020174;28;20077;-54
2021/12/13 10:41:47;;;;;;;16.55;10.60;;;10.00;99.90;;;;;;5021185;28;20473;-55
2021/12/13 10:44:16;;;;;;;14.93;9.70;;;10.00;99.90;;;;;;5019780;28;20464;-54
2021/12/13 10:46:46;;;;;;;19.02;9.88;;;10.00;99.90;;;;;;5021031;28;20026;-55
2021/12/13 10:49:18;;;;;;;15.35;9.13;;;10.00;99.90;;;;;;5020347;28;20037;-54
2021/12/13 10:51:54;;;;;;;13.75;9.00;;;10.10;99.90;;;;;;5021272;28;20034;-53
2021/12/13 10:54:25;;;;;;;13.68;9.38;;;10.10;99.90;;;;;;5020908;28;20037;-56
2021/12/13 10:56:58;;;;;;;16.15;9.50;;;10.10;99.90;;;;;;5020684;28;20095;-55
2021/12/13 10:59:27;;;;;;;14.60;7.85;;;10.20;99.90;;;;;;5020388;28;20416;-54
2021/12/13 11:01:56;;;;;;;11.73;8.27;;;10.10;99.90;;;;;;5020377;28;20036;-54
2021/12/13 11:04:27;;;;;;;12.82;8.27;;;10.10;99.90;;;;;;5020106;28;20117;-53
2021/12/13 11:06:54;;;;;;;12.90;9.02;;;10.10;99.90;;;;;;5019907;28;20034;-56
2021/12/13 11:09:23;;;;;;;12.77;8.15;;;10.10;99.90;;;;;;5020430;28;20044;-54
2021/12/13 11:11:51;;;;;;;11.32;7.45;;;10.10;99.90;;;;;;5019864;28;20215;-53
2021/12/13 11:14:20;;;;;;;11.60;7.93;;;10.10;99.90;;;;;;5020012;28;20176;-54
2021/12/13 11:16:51;;;;;;;12.98;7.97;;;10.20;99.90;;;;;;5019510;28;20037;-53
2021/12/13 11:19:20;;;;;;;9.32;7.38;;;10.10;99.90;;;;;;5018368;28;20439;-54
2021/12/13 11:21:48;;;;;;;12.45;7.53;;;10.10;99.90;;;;;;5019822;28;20475;-56
2021/12/13 11:24:19;;;;;;;11.85;7.20;;;10.10;99.90;;;;;;5019969;28;20281;-53
2021/12/13 11:26:48;;;;;;;9.85;6.80;;;10.00;99.90;;;;;;5021337;28;20404;-55
2021/12/13 11:29:15;;;;;;;11.73;6.93;;;10.10;99.90;;;;;;5018118;28;20029;-56
2021/12/13 11:31:52;;;;;;;10.43;5.88;;;10.00;99.90;;;;;;5020480;28;20021;-54
2021/12/13 11:34:46;;;;;;;11.43;6.82;;;10.00;99.90;;;;;;5019586;28;20021;-57
2021/12/13 11:37:11;;;;;;;10.20;6.70;;;10.00;99.90;;;;;;5019168;28;20025;-53
2021/12/13 11:40:06;;;;;;;8.85;6.53;;;9.90;99.90;;;;;;5018635;28;20097;-53
2021/12/13 11:43:18;;;;;;;13.05;7.05;;;10.00;99.90;;;;;;5000105;28;20125;-54
2021/12/13 11:46:16;;;;;;;11.80;6.68;;;10.00;99.90;;;;;;4973820;28;20034;-55
2021/12/13 11:48:50;;;;;;;9.75;6.85;;;9.90;99.90;;;;;;5019662;28;20030;-55
2021/12/13 11:51:43;;;;;;;11.18;7.00;;;9.90;99.90;;;;;;5019074;28;20037;-57
2021/12/13 11:54:11;;;;;;;11.18;6.88;;;9.90;99.90;;;;;;5019276;28;20415;-55
2021/12/13 11:57:15;;;;;;;8.52;6.97;;;9.90;99.90;;;;;;5019940;28;20631;-56
2021/12/13 12:00:03;;;;;;;11.77;7.53;;;9.90;99.90;;;;;;5019327;28;20025;-55
2021/12/13 12:03:06;;;;;;;12.45;7.78;;;9.80;99.90;;;;;;5017611;28;20022;-54
2021/12/13 12:06:19;;;;;;;12.43;7.93;;;9.80;99.90;;;;;;5018211;28;20029;-53
2021/12/13 12:09:06;;;;;;;9.60;7.65;;;9.80;99.90;;;;;;5018176;28;20025;-53
2021/12/13 12:12:09;;;;;;;11.13;7.85;;;9.80;99.90;;;;;;5017931;28;20057;-55
2021/12/13 12:14:36;;;;;;;9.40;7.38;;;9.80;99.90;;;;;;5019555;28;20033;-57
2021/12/13 12:17:04;;;;;;;11.18;8.80;;;9.80;99.90;;;;;;5017540;28;20029;-56
2021/12/13 12:19:33;;;;;;;13.55;8.50;;;9.70;99.90;;;;;;5019519;28;20369;-56
2021/12/13 12:22:13;;;;;;;15.68;10.05;;;9.70;99.90;;;;;;5019578;28;20029;-54
2021/12/13 12:24:41;;;;;;;14.60;9.88;;;9.70;99.90;;;;;;5019324;28;20029;-55
2021/12/13 12:27:24;;;;;;;13.95;9.63;;;9.70;99.90;;;;;;5019452;28;20030;-56
2021/12/13 12:29:54;;;;;;;11.20;9.02;;;9.70;99.90;;;;;;5019448;28;20029;-53
2021/12/13 12:32:38;;;;;;;14.85;9.73;;;9.70;99.90;;;;;;5018472;28;20156;-55
2021/12/13 12:35:12;;;;;;;14.93;9.95;;;9.70;99.90;;;;;;5018395;28;20026;-55
2021/12/13 12:38:16;;;;;;;14.75;9.80;;;9.70;99.90;;;;;;5018439;28;20504;-54
2021/12/13 12:41:05;;;;;;;14.23;10.65;;;9.70;99.90;;;;;;5017885;28;20021;-56
2021/12/13 12:43:37;;;;;;;14.05;9.95;;;9.70;99.90;;;;;;5018267;28;20037;-56
2021/12/13 12:46:13;;;;;;;19.08;11.57;;;9.70;99.90;;;;;;5033316;28;20116;-54
2021/12/13 12:48:43;;;;;;;;;;;9.70;99.90;;;;;;5018817;28;20033;-55
2021/12/13 12:51:19;;;;;;;13.63;10.60;;;9.70;99.90;;;;;;5018331;28;20484;-55
2021/12/13 12:53:47;;;;;;;13.93;11.02;;;9.70;99.90;;;;;;5018634;28;20018;-57
2021/12/13 12:56:15;;;;;;;16.60;10.63;;;9.70;99.90;;;;;;5018065;28;20021;-56
2021/12/13 12:58:49;;;;;;;16.40;11.27;;;9.70;99.90;;;;;;5017938;28;20021;-53
2021/12/13 13:01:20;;;;;;;16.70;11.43;;;9.60;99.90;;;;;;5017905;28;20476;-53
2021/12/13 13:03:46;;;;;;;19.80;12.02;;;9.60;99.90;;;;;;5018451;28;20480;-55
2021/12/13 13:06:22;;;;;;;14.27;9.73;;;9.60;99.90;;;;;;5017112;28;20032;-58
2021/12/13 13:08:53;;;;;;;15.77;11.40;;;9.60;99.90;;;;;;5017499;28;20033;-57
2021/12/13 13:11:27;;;;;;;20.50;11.52;;;9.60;99.90;;;;;;5018246;28;20084;-53
2021/12/13 13:14:13;;;;;;;19.63;11.63;;;9.60;99.90;;;;;;5018984;28;20041;-56
2021/12/13 13:16:45;;;;;;;18.00;12.38;;;9.60;99.90;;;;;;5021760;28;20028;-54
2021/12/13 13:19:22;;;;;;;16.35;11.35;;;9.60;99.90;;;;;;5017492;28;20045;-56
2021/12/13 13:21:48;;;;;;;17.83;10.85;;;9.60;99.90;;;;;;5018902;28;20034;-54
2021/12/13 13:24:14;;;;;;;17.25;11.88;;;9.60;99.90;;;;;;5019639;28;20070;-53
2021/12/13 13:26:43;;;;;;;16.88;11.40;;;9.60;99.90;;;;;;5017260;28;20068;-56
2021/12/13 13:29:12;;;;;;;19.20;13.38;;;9.60;99.90;;;;;;5017755;28;20033;-57